createdAt,value
2022-09-04T00:02:04.054Z,43.05
2022-09-04T00:04:53.765Z,42.89
2022-09-04T00:07:35.911Z,42.98
2022-09-04T00:10:33.043Z,42.55
2022-09-04T00:13:21.238Z,42.50
2022-09-04T00:15:58.083Z,42.98
2022-09-04T00:18:39.886Z,42.42
2022-09-04T00:21:22.187Z,42.47
2022-09-04T00:24:03.673Z,42.24
2022-09-04T00:27:01.364Z,42.61
2022-09-04T00:30:01.858Z,42.82
2022-09-04T00:32:55.006Z,42.37
2022-09-04T00:35:51.860Z,42.12
2022-09-04T00:38:41.434Z,42.27
2022-09-04T00:41:33.232Z,42.62
2022-09-04T00:44:57.963Z,42.22
2022-09-04T00:48:03.572Z,42.37
2022-09-04T00:50:41.015Z,42.22
2022-09-04T00:53:51.882Z,42.70
2022-09-04T00:57:10.983Z,42.64
2022-09-04T00:59:59.483Z,42.26
2022-09-04T01:03:01.881Z,42.34
2022-09-04T01:05:40.534Z,42.83
2022-09-04T01:08:59.993Z,42.29
2022-09-04T01:11:43.159Z,42.56
2022-09-04T01:14:29.538Z,42.63
2022-09-04T01:17:44.150Z,42.25
2022-09-04T01:20:28.231Z,42.29
2022-09-04T01:23:22.132Z,42.61
2022-09-04T01:26:00.934Z,42.75
2022-09-04T01:29:07.257Z,42.30
2022-09-04T01:32:31.709Z,42.74
2022-09-04T01:35:50.843Z,42.27
2022-09-04T01:38:38.598Z,42.36
2022-09-04T01:41:54.358Z,42.81
2022-09-04T01:44:21.256Z,42.27
2022-09-04T01:47:00.875Z,42.75
2022-09-04T01:50:04.140Z,42.59
2022-09-04T01:52:54.811Z,42.66
2022-09-04T01:55:52.365Z,43.24
2022-09-04T01:58:35.418Z,43.15
2022-09-04T02:01:29.196Z,42.92
2022-09-04T02:04:34.637Z,43.07
2022-09-04T02:07:33.780Z,43.25
2022-09-04T02:10:29.170Z,43.69
2022-09-04T02:13:44.887Z,43.75
2022-09-04T02:17:08.039Z,44.02
2022-09-04T02:20:09.471Z,43.68
2022-09-04T02:22:54.732Z,43.64
2022-09-04T02:25:49.276Z,43.79
2022-09-04T02:28:30.754Z,44.00
2022-09-04T02:31:10.448Z,44.16
2022-09-04T02:33:54.054Z,44.26
2022-09-04T02:36:50.307Z,43.96
2022-09-04T02:40:02.330Z,44.16
2022-09-04T02:43:12.563Z,44.61
2022-09-04T02:46:13.650Z,44.31
2022-09-04T02:49:15.258Z,44.35
2022-09-04T02:52:17.480Z,44.45
2022-09-04T02:55:11.029Z,44.79
2022-09-04T02:58:26.460Z,44.89
2022-09-04T03:01:15.348Z,45.02
2022-09-04T03:03:52.917Z,45.08
2022-09-04T03:06:42.011Z,45.21
2022-09-04T03:09:27.517Z,45.56
2022-09-04T03:12:06.401Z,45.23
2022-09-04T03:14:43.975Z,45.57
2022-09-04T03:17:33.391Z,46.12
2022-09-04T03:20:10.012Z,45.72
2022-09-04T03:22:47.561Z,46.00
2022-09-04T03:26:05.336Z,46.14
2022-09-04T03:28:50.110Z,46.31
2022-09-04T03:31:48.871Z,46.59
2022-09-04T03:34:37.901Z,46.61
2022-09-04T03:37:29.218Z,46.83
2022-09-04T03:40:45.707Z,46.75
2022-09-04T03:43:49.756Z,47.16
2022-09-04T03:46:25.171Z,46.98
2022-09-04T03:49:08.759Z,47.42
2022-09-04T03:52:11.126Z,47.36
2022-09-04T03:55:07.236Z,47.70
2022-09-04T03:57:46.879Z,47.96
2022-09-04T04:00:20.503Z,47.85
2022-09-04T04:03:03.135Z,48.40
2022-09-04T04:06:10.283Z,48.75
2022-09-04T04:09:04.736Z,48.72
2022-09-04T04:12:27.438Z,48.64
2022-09-04T04:15:46.079Z,48.83
2022-09-04T04:18:45.248Z,49.02
2022-09-04T04:21:57.634Z,48.70
2022-09-04T04:24:48.113Z,48.89
2022-09-04T04:27:59.089Z,48.97
2022-09-04T04:30:39.553Z,49.32
2022-09-04T04:33:37.435Z,49.44
2022-09-04T04:36:51.828Z,49.30
2022-09-04T04:39:41.557Z,49.59
2022-09-04T04:42:31.436Z,49.80
2022-09-04T04:45:46.788Z,49.86
2022-09-04T04:48:50.314Z,49.80
2022-09-04T04:52:05.374Z,49.97
2022-09-04T04:54:58.090Z,50.10
2022-09-04T04:58:11.483Z,50.11
2022-09-04T05:00:49.725Z,50.15
2022-09-04T05:04:00.799Z,50.19
2022-09-04T05:07:00.129Z,50.58
2022-09-04T05:09:58.596Z,50.72
2022-09-04T05:12:55.165Z,50.85
2022-09-04T05:16:07.448Z,50.76
2022-09-04T05:18:45.414Z,50.71
2022-09-04T05:21:24.741Z,50.74
2022-09-04T05:24:22.592Z,50.99
2022-09-04T05:27:17.303Z,50.32
2022-09-04T05:30:08.042Z,50.69
2022-09-04T05:32:58.944Z,50.80
2022-09-04T05:35:41.148Z,51.18
2022-09-04T05:38:22.294Z,51.49
2022-09-04T05:41:20.542Z,51.59
2022-09-04T05:44:12.167Z,51.64
2022-09-04T05:47:18.751Z,51.39
2022-09-04T05:50:30.357Z,51.09
2022-09-04T05:53:29.014Z,51.01
2022-09-04T05:56:36.163Z,50.96
2022-09-04T05:59:22.281Z,51.05
2022-09-04T06:02:06.561Z,51.22
2022-09-04T06:05:22.796Z,50.76
2022-09-04T06:08:33.017Z,50.67
2022-09-04T06:11:40.979Z,50.53
2022-09-04T06:14:45.304Z,50.57
2022-09-04T06:17:28.911Z,50.78
2022-09-04T06:20:24.494Z,50.80
2022-09-04T06:23:24.104Z,51.08
2022-09-04T06:26:26.712Z,50.81
2022-09-04T06:29:27.167Z,50.58
2022-09-04T06:32:35.985Z,50.65
2022-09-04T06:35:18.823Z,50.24
2022-09-04T06:38:12.683Z,50.25
2022-09-04T06:41:05.173Z,50.34
2022-09-04T06:44:12.904Z,50.44
2022-09-04T06:47:29.426Z,50.35
2022-09-04T06:50:31.576Z,50.19
2022-09-04T06:53:22.462Z,50.04
2022-09-04T06:56:34.006Z,50.25
2022-09-04T06:59:22.839Z,49.93
2022-09-04T07:02:04.219Z,49.96
2022-09-04T07:05:09.888Z,50.19
2022-09-04T07:08:09.971Z,50.10
2022-09-04T07:11:00.417Z,49.83
2022-09-04T07:14:01.060Z,49.88
2022-09-04T07:16:38.855Z,50.08
2022-09-04T07:19:46.732Z,50.25
2022-09-04T07:22:50.392Z,49.41
2022-09-04T07:26:00.611Z,49.36
2022-09-04T07:28:59.770Z,49.56
2022-09-04T07:32:10.911Z,49.13
2022-09-04T07:35:02.712Z,49.28
2022-09-04T07:38:07.513Z,49.00
2022-09-04T07:40:38.808Z,49.02
2022-09-04T07:43:08.178Z,48.87
2022-09-04T07:45:51.185Z,48.74
2022-09-04T07:48:31.991Z,48.72
2022-09-04T07:51:10.305Z,48.29
2022-09-04T07:54:02.283Z,48.67
2022-09-04T07:57:05.981Z,48.87
2022-09-04T07:59:53.103Z,48.44
2022-09-04T08:02:39.076Z,48.74
2022-09-04T08:05:34.546Z,48.67
2022-09-04T08:08:37.849Z,48.51
2022-09-04T08:11:38.218Z,48.71
2022-09-04T08:14:19.740Z,48.43
2022-09-04T08:17:43.056Z,48.52
2022-09-04T08:20:51.729Z,48.04
2022-09-04T08:23:36.195Z,48.17
2022-09-04T08:26:48.888Z,48.37
2022-09-04T08:29:53.868Z,47.96
2022-09-04T08:32:43.079Z,48.17
2022-09-04T08:35:27.324Z,47.58
2022-09-04T08:38:28.700Z,47.49
2022-09-04T08:41:31.896Z,48.22
2022-09-04T08:44:48.581Z,47.95
2022-09-04T08:47:35.779Z,47.36
2022-09-04T08:50:19.085Z,47.65
2022-09-04T08:53:06.406Z,47.51
2022-09-04T08:55:56.164Z,47.75
2022-09-04T08:59:09.404Z,47.47
2022-09-04T09:02:20.215Z,47.43
2022-09-04T09:05:36.428Z,46.95
2022-09-04T09:08:48.741Z,46.59
2022-09-04T09:11:48.079Z,46.74
2022-09-04T09:15:02.047Z,46.55
2022-09-04T09:18:09.042Z,46.74
2022-09-04T09:20:56.665Z,47.30
2022-09-04T09:24:04.693Z,46.90
2022-09-04T09:26:38.833Z,45.99
2022-09-04T09:29:42.298Z,46.10
2022-09-04T09:32:48.284Z,44.58
2022-09-04T09:36:29.915Z,44.48
2022-09-04T09:39:36.222Z,44.77
2022-09-04T09:42:24.072Z,45.01
2022-09-04T09:45:25.205Z,44.93
2022-09-04T09:48:32.185Z,44.30
2022-09-04T09:51:23.620Z,44.45
2022-09-04T09:54:28.127Z,44.14
2022-09-04T09:57:34.161Z,44.12
2022-09-04T10:00:22.782Z,43.45
2022-09-04T10:03:32.797Z,43.64
2022-09-04T10:06:27.141Z,43.71
2022-09-04T10:09:34.576Z,43.07
2022-09-04T10:12:56.455Z,42.65
2022-09-04T10:16:10.610Z,42.54
2022-09-04T10:19:07.000Z,42.43
2022-09-04T10:22:12.124Z,42.88
2022-09-04T10:25:21.530Z,42.37
2022-09-04T10:28:12.973Z,42.37
2022-09-04T10:31:27.086Z,41.72
2022-09-04T10:34:04.784Z,40.65
2022-09-04T10:37:19.434Z,40.32
2022-09-04T10:40:28.333Z,39.82
2022-09-04T10:43:37.374Z,39.51
2022-09-04T10:46:23.220Z,39.87
2022-09-04T10:49:30.337Z,38.45
2022-09-04T10:52:40.821Z,38.00
2022-09-04T10:55:46.956Z,38.22
2022-09-04T10:58:40.990Z,36.93
2022-09-04T11:01:55.703Z,36.93
2022-09-04T11:04:38.472Z,36.38
2022-09-04T11:07:49.228Z,37.32
2022-09-04T11:11:06.931Z,36.38
2022-09-04T11:14:06.039Z,36.80
2022-09-04T11:16:59.851Z,35.55
2022-09-04T11:19:54.165Z,34.03
2022-09-04T11:22:59.490Z,34.88
2022-09-04T11:26:08.065Z,35.03
2022-09-04T11:29:31.349Z,35.69
2022-09-04T11:32:39.476Z,35.48
2022-09-04T11:35:19.256Z,35.52
2022-09-04T11:37:59.831Z,33.25
2022-09-04T11:41:17.331Z,32.76
2022-09-04T11:44:25.178Z,32.41
2022-09-04T11:47:06.704Z,33.03
2022-09-04T11:50:07.016Z,32.30
2022-09-04T11:53:11.306Z,33.01
2022-09-04T11:56:08.279Z,32.81
2022-09-04T11:59:15.401Z,31.98
2022-09-04T12:02:31.891Z,31.56
2022-09-04T12:05:42.026Z,31.60
2022-09-04T12:08:46.220Z,31.34
2022-09-04T12:12:04.032Z,31.37
2022-09-04T12:15:22.229Z,31.25
2022-09-04T12:18:04.675Z,31.80
2022-09-04T12:21:06.734Z,30.98
2022-09-04T12:24:08.815Z,31.17
2022-09-04T12:27:01.620Z,30.60
2022-09-04T12:30:19.160Z,30.63
2022-09-04T12:33:31.167Z,30.92
2022-09-04T12:36:17.571Z,30.07
2022-09-04T12:39:03.495Z,30.45
2022-09-04T12:41:45.773Z,30.25
2022-09-04T12:44:41.744Z,30.32
2022-09-04T12:47:58.002Z,31.11
2022-09-04T12:51:11.781Z,29.46
2022-09-04T12:54:09.432Z,29.47
2022-09-04T12:56:49.334Z,29.70
2022-09-04T12:59:57.347Z,30.14
2022-09-04T13:03:11.223Z,30.10
2022-09-04T13:06:19.118Z,29.00
2022-09-04T13:09:15.586Z,29.74
2022-09-04T13:12:29.321Z,29.35
2022-09-04T13:15:19.324Z,29.40
2022-09-04T13:18:12.467Z,29.31
2022-09-04T13:21:43.323Z,29.56
2022-09-04T13:24:35.870Z,29.62
2022-09-04T13:27:48.119Z,29.92
2022-09-04T13:30:24.481Z,28.99
2022-09-04T13:33:03.355Z,29.07
2022-09-04T13:35:59.205Z,29.49
2022-09-04T13:39:00.647Z,28.67
2022-09-04T13:41:54.867Z,29.53
2022-09-04T13:44:50.062Z,29.44
2022-09-04T13:47:22.793Z,28.84
2022-09-04T13:50:25.748Z,29.36
2022-09-04T13:53:06.424Z,30.21
2022-09-04T13:55:41.784Z,28.99
2022-09-04T13:58:20.268Z,29.59
2022-09-04T14:00:57.049Z,29.56
2022-09-04T14:03:37.768Z,29.37
2022-09-04T14:06:08.898Z,29.19
2022-09-04T14:08:37.884Z,29.14
2022-09-04T14:11:53.292Z,29.44
2022-09-04T14:14:48.557Z,29.66
2022-09-04T14:17:26.958Z,30.87
2022-09-04T14:20:12.547Z,31.41
2022-09-04T14:23:06.493Z,32.47
2022-09-04T14:26:12.921Z,32.23
2022-09-04T14:28:48.428Z,32.32
2022-09-04T14:31:46.847Z,32.76
2022-09-04T14:34:57.136Z,32.95
2022-09-04T14:37:52.011Z,33.09
2022-09-04T14:40:37.499Z,33.51
2022-09-04T14:43:34.943Z,33.43
2022-09-04T14:46:24.194Z,32.84
2022-09-04T14:49:06.115Z,33.47
2022-09-04T14:51:38.320Z,33.08
2022-09-04T14:54:06.747Z,33.82
2022-09-04T14:56:53.251Z,33.57
2022-09-04T14:59:34.372Z,33.60
2022-09-04T15:02:17.507Z,33.80
2022-09-04T15:05:13.174Z,34.75
2022-09-04T15:07:42.787Z,35.11
2022-09-04T15:10:40.099Z,34.35
2022-09-04T15:13:28.714Z,34.55
2022-09-04T15:16:40.049Z,34.00
2022-09-04T15:19:47.503Z,34.36
2022-09-04T15:22:39.621Z,35.08
2022-09-04T15:25:47.919Z,35.55
2022-09-04T15:28:39.364Z,36.18
2022-09-04T15:31:32.267Z,36.49
2022-09-04T15:34:03.562Z,36.58
2022-09-04T15:36:31.428Z,36.99
2022-09-04T15:39:01.473Z,36.50
2022-09-04T15:41:48.167Z,36.99
2022-09-04T15:44:29.921Z,37.26
2022-09-04T15:47:12.292Z,36.79
2022-09-04T15:49:51.527Z,36.23
2022-09-04T15:52:40.263Z,36.12
2022-09-04T15:55:38.580Z,35.72
2022-09-04T15:58:30.342Z,36.14
2022-09-04T16:01:06.200Z,36.24
2022-09-04T16:04:03.326Z,36.25
2022-09-04T16:06:54.111Z,37.02
2022-09-04T16:09:31.732Z,36.99
2022-09-04T16:12:11.843Z,37.86
2022-09-04T16:14:53.231Z,37.58
2022-09-04T16:17:27.206Z,38.39
2022-09-04T16:20:11.692Z,38.95
2022-09-04T16:22:47.527Z,38.66
2022-09-04T16:25:31.708Z,39.69
2022-09-04T16:28:20.082Z,40.10
2022-09-04T16:30:56.436Z,40.43
2022-09-04T16:33:30.354Z,40.49
2022-09-04T16:36:45.683Z,40.25
2022-09-04T16:39:59.341Z,40.58
2022-09-04T16:42:46.390Z,40.43
2022-09-04T16:45:30.079Z,40.91
2022-09-04T16:48:34.777Z,40.40
2022-09-04T16:51:40.387Z,40.41
2022-09-04T16:54:30.805Z,41.09
2022-09-04T16:57:14.720Z,40.49
2022-09-04T16:59:46.188Z,40.83
2022-09-04T17:02:41.833Z,40.96
2022-09-04T17:05:45.750Z,40.91
2022-09-04T17:08:34.959Z,41.14
2022-09-04T17:11:22.653Z,41.07
2022-09-04T17:14:19.146Z,41.42
2022-09-04T17:16:52.763Z,41.55
2022-09-04T17:19:21.831Z,41.30
2022-09-04T17:27:29.578Z,41.49
2022-09-04T17:29:15.825Z,41.95
2022-09-04T17:29:34.906Z,41.86
2022-09-04T17:31:59.465Z,42.03
2022-09-04T17:40:38.802Z,41.79
2022-09-04T17:40:48.846Z,41.79
2022-09-04T17:41:49.351Z,41.96
2022-09-04T17:44:46.682Z,42.00
2022-09-04T17:47:31.865Z,42.12
2022-09-04T17:50:00.722Z,42.01
2022-09-04T17:52:53.001Z,42.05
2022-09-04T17:55:20.880Z,42.27
2022-09-04T17:58:08.759Z,42.28
2022-09-04T18:01:15.148Z,42.72
2022-09-04T18:04:22.404Z,43.01
2022-09-04T18:07:21.884Z,43.17
2022-09-04T18:10:31.218Z,43.15
2022-09-04T18:13:38.914Z,43.30
2022-09-04T18:16:42.334Z,43.50
2022-09-04T18:19:28.246Z,43.24
2022-09-04T18:22:31.992Z,43.28
2022-09-04T18:25:28.335Z,43.53
2022-09-04T18:28:26.619Z,43.78
2022-09-04T18:37:11.744Z,44.00
2022-09-04T18:37:21.951Z,43.84
2022-09-04T18:37:45.857Z,44.00
2022-09-04T18:42:30.207Z,43.95
2022-09-04T18:50:25.240Z,44.07
2022-09-04T18:50:31.684Z,44.13
2022-09-04T18:50:35.290Z,44.45
2022-09-04T18:53:17.323Z,44.41
2022-09-04T18:56:02.000Z,44.41
2022-09-04T18:58:43.369Z,44.59
2022-09-04T19:01:27.335Z,44.57
2022-09-04T19:04:58.891Z,44.74
2022-09-04T19:07:35.291Z,44.99
2022-09-04T19:10:21.818Z,45.12
2022-09-04T19:13:10.055Z,44.97
2022-09-04T19:16:11.640Z,45.52
2022-09-04T19:18:41.750Z,45.19
2022-09-04T19:21:11.203Z,45.66
2022-09-04T19:24:05.460Z,45.68
2022-09-04T19:26:54.165Z,45.97
2022-09-04T19:29:30.355Z,46.17
2022-09-04T19:32:07.445Z,45.91
2022-09-04T19:35:08.570Z,46.16
2022-09-04T19:40:15.205Z,46.53
2022-09-04T19:46:08.363Z,46.95
2022-09-04T19:46:14.130Z,47.04
2022-09-04T19:47:39.953Z,47.05
2022-09-04T19:53:21.652Z,47.21
2022-09-04T19:53:36.808Z,47.30
2022-09-04T19:56:27.739Z,47.08
2022-09-04T19:59:39.251Z,47.24
2022-09-04T20:03:07.036Z,48.34
2022-09-04T20:05:35.391Z,48.04
2022-09-04T20:08:24.527Z,48.50
2022-09-04T20:10:58.428Z,48.28
2022-09-04T20:13:42.664Z,48.11
2022-09-04T20:16:22.505Z,48.32
2022-09-04T20:19:37.506Z,48.34
2022-09-04T20:22:28.838Z,48.74
2022-09-04T20:25:07.044Z,48.76
2022-09-04T20:27:46.903Z,48.61
2022-09-04T20:30:22.152Z,48.59
2022-09-04T20:33:06.517Z,48.82
2022-09-04T20:35:42.206Z,49.16
2022-09-04T20:38:46.005Z,49.14
2022-09-04T20:41:20.627Z,49.09
2022-09-04T20:44:13.383Z,49.67
2022-09-04T20:52:29.769Z,49.37
2022-09-04T20:53:04.839Z,49.63
2022-09-04T20:53:47.751Z,49.63
2022-09-04T20:59:53.948Z,49.81
2022-09-04T21:03:08.103Z,49.95
2022-09-04T21:03:32.623Z,49.85
2022-09-04T21:06:25.246Z,50.62
2022-09-04T21:09:17.248Z,50.56
2022-09-04T21:11:50.104Z,50.40
2022-09-04T21:14:45.419Z,50.53
2022-09-04T21:17:59.044Z,50.84
2022-09-04T21:20:51.867Z,50.97
2022-09-04T21:24:21.494Z,50.56
2022-09-04T21:27:20.360Z,51.04
2022-09-04T21:29:52.249Z,51.11
2022-09-04T21:32:48.243Z,50.85
2022-09-04T21:35:28.127Z,51.03
2022-09-04T21:38:35.235Z,51.24
2022-09-04T21:41:31.494Z,51.46
2022-09-04T21:44:42.627Z,51.56
2022-09-04T21:47:31.123Z,51.67
2022-09-04T21:50:49.570Z,51.13
2022-09-04T21:54:38.328Z,51.63
2022-09-04T22:02:35.290Z,51.33
2022-09-04T22:02:42.419Z,51.40
2022-09-04T22:04:02.324Z,51.36
2022-09-04T22:08:41.232Z,51.33
2022-09-04T22:13:42.209Z,51.15
2022-09-04T22:13:48.023Z,51.20
2022-09-04T22:16:55.012Z,50.98
2022-09-04T22:20:08.567Z,51.31
2022-09-04T22:23:20.084Z,51.08
2022-09-04T22:26:24.151Z,51.23
2022-09-04T22:29:44.767Z,51.26
2022-09-04T22:33:13.748Z,51.17
2022-09-04T22:36:52.889Z,51.25
2022-09-04T22:40:17.263Z,51.37
2022-09-04T22:43:12.868Z,51.53
2022-09-04T22:46:16.204Z,51.06
2022-09-04T22:49:16.174Z,51.46
2022-09-04T22:52:22.052Z,51.09
2022-09-04T22:55:39.640Z,51.23
2022-09-04T22:58:55.795Z,50.95
2022-09-04T23:02:20.389Z,50.78
2022-09-04T23:04:53.878Z,50.93
2022-09-04T23:13:43.264Z,50.61
2022-09-04T23:13:52.628Z,50.36
2022-09-04T23:14:31.354Z,50.44
2022-09-04T23:17:23.361Z,50.39
2022-09-04T23:25:52.032Z,50.31
2022-09-04T23:26:47.170Z,50.25
2022-09-04T23:27:30.776Z,50.25
2022-09-04T23:30:26.539Z,49.81
2022-09-04T23:33:49.368Z,49.86
2022-09-04T23:36:33.846Z,49.55
2022-09-04T23:39:28.816Z,49.43
2022-09-04T23:42:26.019Z,48.89
2022-09-04T23:45:53.888Z,48.98
2022-09-04T23:49:06.926Z,48.68
2022-09-04T23:51:54.535Z,48.32
2022-09-04T23:55:09.910Z,48.17
2022-09-04T23:58:31.280Z,47.32
